Time;durP1;ratioP1;P1;durP2;ratioP2;P2;SDS_P1;SDS_P2;PMS_P1;PMS_P2;Temp;Humidity;BMP_temperature;BMP_pressure;BME280_temperature;BME280_humidity;BME280_pressure;Samples;Min_cycle;Max_cycle;Signal;HPM_P1;HPM_P2
2022/10/28 00:00:47;;;;;;;16.92;9.45;;;;;;;;;;5105763;27;20067;-72
2022/10/28 00:03:13;;;;;;;16.83;9.32;;;;;;;;;;5096050;27;20130;-68
2022/10/28 00:05:39;;;;;;;15.88;9.52;;;;;;;;;;5094245;27;20043;-69
2022/10/28 00:08:05;;;;;;;17.10;9.57;;;;;;;;;;5105652;27;20089;-69
2022/10/28 00:10:32;;;;;;;25.25;10.70;;;;;;;;;;5108790;27;20051;-68
2022/10/28 00:12:58;;;;;;;18.48;10.07;;;;;;;;;;5098793;28;20052;-68
2022/10/28 00:15:24;;;;;;;21.02;10.07;;;;;;;;;;5102002;27;20043;-68
2022/10/28 00:17:50;;;;;;;18.77;9.80;;;;;;;;;;5107861;27;20063;-69
2022/10/28 00:20:16;;;;;;;22.58;10.50;;;;;;;;;;5109968;27;20478;-70
2022/10/28 00:22:42;;;;;;;22.45;10.32;;;;;;;;;;5104282;28;20122;-70
2022/10/28 00:25:08;;;;;;;22.05;9.55;;;;;;;;;;5109339;28;20048;-72
2022/10/28 00:27:34;;;;;;;22.73;9.48;;;;;;;;;;5110823;27;20063;-69
2022/10/28 00:30:00;;;;;;;19.85;9.70;;;;;;;;;;5091630;28;20082;-70
2022/10/28 00:32:30;;;;;;;17.38;9.35;;;;;;;;;;5105373;27;20047;-71
2022/10/28 00:34:56;;;;;;;18.67;8.52;;;;;;;;;;5106200;28;20126;-69
2022/10/28 00:37:23;;;;;;;17.35;9.70;;;;;;;;;;5108510;28;20043;-69
2022/10/28 00:39:49;;;;;;;16.08;10.35;;;;;;;;;;5112737;27;20073;-70
2022/10/28 00:42:17;;;;;;;15.88;10.82;;;;;;;;;;5099687;27;20040;-69
2022/10/28 00:44:43;;;;;;;14.98;10.30;;;;;;;;;;5104910;27;20132;-68
2022/10/28 00:47:31;;;;;;;20.52;10.98;;;;;;;;;;5107583;27;20040;-68
2022/10/28 00:50:03;;;;;;;20.05;9.50;;;;;;;;;;5106436;28;20138;-68
2022/10/28 00:52:30;;;;;;;27.52;10.82;;;;;;;;;;5106407;28;20044;-68
2022/10/28 00:54:58;;;;;;;22.77;10.68;;;;;;;;;;5091896;28;20062;-70
2022/10/28 00:57:28;;;;;;;19.52;11.68;;;;;;;;;;5106811;27;20054;-70
2022/10/28 00:59:54;;;;;;;22.40;11.82;;;;;;;;;;5101807;28;20134;-68
2022/10/28 01:02:20;;;;;;;17.80;11.77;;;;;;;;;;5103144;28;20069;-69
2022/10/28 01:04:46;;;;;;;22.70;12.27;;;;;;;;;;5109320;27;20528;-69
2022/10/28 01:07:14;;;;;;;22.63;13.25;;;;;;;;;;5093885;28;20119;-67
2022/10/28 01:09:40;;;;;;;22.73;14.43;;;;;;;;;;5093678;28;20047;-69
2022/10/28 01:12:09;;;;;;;23.85;15.75;;;;;;;;;;5103309;28;20058;-70
2022/10/28 01:14:54;;;;;;;28.17;16.13;;;;;;;;;;5095022;27;20929;-69
2022/10/28 01:17:32;;;;;;;30.48;17.33;;;;;;;;;;5107241;27;20395;-69
2022/10/28 01:20:07;;;;;;;26.42;16.98;;;;;;;;;;5084871;28;20044;-68
2022/10/28 01:22:52;;;;;;;33.20;17.70;;;;;;;;;;5090585;28;20046;-69
2022/10/28 01:25:21;;;;;;;30.60;17.80;;;;;;;;;;5096693;27;20083;-68
2022/10/28 01:28:05;;;;;;;32.28;17.45;;;;;;;;;;5101059;27;20039;-68
2022/10/28 01:30:42;;;;;;;28.55;16.92;;;;;;;;;;5093181;27;20069;-69
2022/10/28 01:33:31;;;;;;;35.90;17.55;;;;;;;;;;5099285;28;20043;-69
2022/10/28 01:36:03;;;;;;;37.45;18.08;;;;;;;;;;5101851;28;20670;-69
2022/10/28 01:38:32;;;;;;;29.60;17.38;;;;;;;;;;5106521;27;20062;-69
2022/10/28 01:41:09;;;;;;;30.63;16.95;;;;;;;;;;5103764;28;20090;-69
2022/10/28 01:43:35;;;;;;;33.47;17.35;;;;;;;;;;5107573;27;20039;-69
2022/10/28 01:46:04;;;;;;;30.38;16.80;;;;;;;;;;5100261;28;20059;-68
2022/10/28 01:48:33;;;;;;;30.15;17.60;;;;;;;;;;5080441;28;20055;-69
2022/10/28 01:51:03;;;;;;;30.33;16.90;;;;;;;;;;5100210;27;20098;-68
2022/10/28 01:53:32;;;;;;;33.03;18.92;;;;;;;;;;5099150;27;20044;-68
2022/10/28 01:56:02;;;;;;;33.13;17.55;;;;;;;;;;5101935;28;20040;-69
2022/10/28 01:58:30;;;;;;;32.92;19.15;;;;;;;;;;5106069;27;20549;-69
2022/10/28 02:00:56;;;;;;;31.48;18.08;;;;;;;;;;5102261;27;20051;-69
2022/10/28 02:03:23;;;;;;;27.23;17.98;;;;;;;;;;5093472;27;20093;-68
2022/10/28 02:05:51;;;;;;;34.10;18.15;;;;;;;;;;5099676;27;20542;-68
2022/10/28 02:08:17;;;;;;;33.25;17.70;;;;;;;;;;5098278;27;20063;-69
2022/10/28 02:11:02;;;;;;;34.47;18.45;;;;;;;;;;5104260;28;20051;-68
2022/10/28 02:13:36;;;;;;;39.20;18.00;;;;;;;;;;5105649;27;20605;-69
2022/10/28 02:16:14;;;;;;;29.65;18.15;;;;;;;;;;5091779;28;20054;-69
2022/10/28 02:18:49;;;;;;;29.55;18.45;;;;;;;;;;5102105;28;20071;-69
2022/10/28 02:21:20;;;;;;;33.35;18.40;;;;;;;;;;5097688;27;20043;-68
2022/10/28 02:23:52;;;;;;;28.55;18.23;;;;;;;;;;5108505;27;20052;-69
2022/10/28 02:26:47;;;;;;;38.33;18.30;;;;;;;;;;5095694;27;20107;-69
2022/10/28 02:29:16;;;;;;;37.55;18.48;;;;;;;;;;5037922;28;20052;-69
2022/10/28 02:31:45;;;;;;;36.35;18.80;;;;;;;;;;5098439;27;20046;-69
2022/10/28 02:34:13;;;;;;;32.15;18.00;;;;;;;;;;5090271;28;20118;-67
2022/10/28 02:36:43;;;;;;;36.97;18.38;;;;;;;;;;5092590;28;20044;-69
2022/10/28 02:39:10;;;;;;;37.72;19.35;;;;;;;;;;5107027;27;20385;-69
2022/10/28 02:41:36;;;;;;;32.53;17.70;;;;;;;;;;5103479;27;20066;-69
2022/10/28 02:44:05;;;;;;;35.13;18.50;;;;;;;;;;5102697;27;20078;-69
2022/10/28 02:46:33;;;;;;;30.92;17.55;;;;;;;;;;5100023;27;20051;-69
2022/10/28 02:49:02;;;;;;;34.53;18.75;;;;;;;;;;5108141;27;20452;-69
2022/10/28 02:51:36;;;;;;;33.38;16.88;;;;;;;;;;5096534;27;20054;-69
2022/10/28 02:54:05;;;;;;;29.10;18.33;;;;;;;;;;5105336;28;20047;-69
2022/10/28 02:56:34;;;;;;;29.08;17.13;;;;;;;;;;5087145;28;20048;-69
2022/10/28 02:59:00;;;;;;;31.63;16.58;;;;;;;;;;5097518;28;20044;-69
2022/10/28 03:01:26;;;;;;;33.08;18.08;;;;;;;;;;5104108;28;20039;-69
2022/10/28 03:03:52;;;;;;;30.60;17.48;;;;;;;;;;5097500;28;20047;-69
2022/10/28 03:06:18;;;;;;;36.63;17.80;;;;;;;;;;5108794;28;20044;-69
2022/10/28 03:08:44;;;;;;;32.08;17.20;;;;;;;;;;5101966;28;20042;-69
2022/10/28 03:11:10;;;;;;;27.27;16.70;;;;;;;;;;5109908;28;20096;-70
2022/10/28 03:13:36;;;;;;;34.90;15.88;;;;;;;;;;5099379;28;20578;-70
2022/10/28 03:16:02;;;;;;;30.83;17.00;;;;;;;;;;5109674;28;20051;-68
2022/10/28 03:18:27;;;;;;;26.13;15.43;;;;;;;;;;5097859;28;20056;-69
2022/10/28 03:20:54;;;;;;;24.48;15.30;;;;;;;;;;5093040;28;20094;-69
2022/10/28 03:23:19;;;;;;;33.92;15.70;;;;;;;;;;5096161;28;20558;-70
2022/10/28 03:25:45;;;;;;;31.05;16.33;;;;;;;;;;5105071;28;20139;-68
2022/10/28 03:28:11;;;;;;;27.67;14.38;;;;;;;;;;5104953;28;20565;-69
2022/10/28 03:30:37;;;;;;;34.10;15.43;;;;;;;;;;5098517;28;20421;-69
2022/10/28 03:33:03;;;;;;;22.70;15.27;;;;;;;;;;5103682;28;20101;-69
2022/10/28 03:35:29;;;;;;;24.02;15.32;;;;;;;;;;5106421;28;20047;-69
2022/10/28 03:37:55;;;;;;;26.27;16.15;;;;;;;;;;5101726;28;20055;-68
2022/10/28 03:40:21;;;;;;;28.52;15.13;;;;;;;;;;5102198;28;20051;-69
2022/10/28 03:42:47;;;;;;;22.58;14.68;;;;;;;;;;5101257;28;20044;-69
2022/10/28 03:45:13;;;;;;;24.48;15.70;;;;;;;;;;5101294;28;20213;-69
2022/10/28 03:47:39;;;;;;;23.85;15.15;;;;;;;;;;5104502;28;20068;-70
2022/10/28 03:50:06;;;;;;;29.88;16.05;;;;;;;;;;5100808;28;20109;-69
2022/10/28 03:52:32;;;;;;;31.30;15.85;;;;;;;;;;5101558;28;20083;-69
2022/10/28 03:54:57;;;;;;;30.73;17.00;;;;;;;;;;5109258;28;20071;-70
2022/10/28 03:57:23;;;;;;;33.65;16.27;;;;;;;;;;5104615;28;20056;-69
2022/10/28 03:59:49;;;;;;;27.30;16.48;;;;;;;;;;5099530;28;20051;-70
2022/10/28 04:02:16;;;;;;;32.35;17.33;;;;;;;;;;5100709;28;20096;-70
2022/10/28 04:04:41;;;;;;;29.90;17.55;;;;;;;;;;5100459;28;20501;-69
2022/10/28 04:07:07;;;;;;;36.33;17.00;;;;;;;;;;5103314;28;20047;-70
2022/10/28 04:09:33;;;;;;;30.35;16.50;;;;;;;;;;5101872;27;20498;-69
2022/10/28 04:11:59;;;;;;;32.83;17.23;;;;;;;;;;5110037;27;20048;-69
2022/10/28 04:14:25;;;;;;;28.58;17.05;;;;;;;;;;5097200;28;20050;-69
2022/10/28 04:16:51;;;;;;;31.95;16.30;;;;;;;;;;5107356;27;20478;-69
2022/10/28 04:19:17;;;;;;;27.33;16.00;;;;;;;;;;5105209;27;20142;-69
2022/10/28 04:21:43;;;;;;;30.17;16.42;;;;;;;;;;5108260;27;20125;-69
2022/10/28 04:24:09;;;;;;;24.95;16.55;;;;;;;;;;5101770;27;20039;-69
2022/10/28 04:26:35;;;;;;;32.72;17.00;;;;;;;;;;5112908;27;20443;-69
2022/10/28 04:29:01;;;;;;;29.20;16.60;;;;;;;;;;5105900;27;20047;-67
2022/10/28 04:31:27;;;;;;;28.70;15.98;;;;;;;;;;5098983;27;20046;-68
2022/10/28 04:33:53;;;;;;;30.30;16.45;;;;;;;;;;5104171;28;20052;-68
2022/10/28 04:36:19;;;;;;;33.05;16.50;;;;;;;;;;5110416;27;20066;-68
2022/10/28 04:38:45;;;;;;;27.05;15.85;;;;;;;;;;5102986;27;20130;-68
2022/10/28 04:41:14;;;;;;;30.27;16.25;;;;;;;;;;5111339;27;20047;-70
2022/10/28 04:43:40;;;;;;;29.95;16.77;;;;;;;;;;5105933;28;20040;-69
2022/10/28 04:46:06;;;;;;;28.60;15.75;;;;;;;;;;5087195;28;20097;-69
2022/10/28 04:48:32;;;;;;;30.15;15.50;;;;;;;;;;5086434;28;20066;-69
2022/10/28 04:50:58;;;;;;;29.02;16.27;;;;;;;;;;5103585;27;20054;-69
2022/10/28 04:53:24;;;;;;;30.52;16.88;;;;;;;;;;5108366;27;20043;-69
2022/10/28 04:55:51;;;;;;;29.27;15.98;;;;;;;;;;5108950;27;20900;-69
2022/10/28 04:58:17;;;;;;;30.92;16.23;;;;;;;;;;5105908;28;20071;-69
2022/10/28 05:00:43;;;;;;;33.78;16.58;;;;;;;;;;5097350;28;20059;-69
2022/10/28 05:03:08;;;;;;;29.08;14.77;;;;;;;;;;5108012;27;20058;-69
2022/10/28 05:05:34;;;;;;;30.35;16.15;;;;;;;;;;5101601;27;20048;-70
2022/10/28 05:08:01;;;;;;;26.38;15.50;;;;;;;;;;5100464;28;20044;-68
2022/10/28 05:10:27;;;;;;;27.85;16.30;;;;;;;;;;5097757;27;20044;-69
2022/10/28 05:12:53;;;;;;;33.65;16.48;;;;;;;;;;5109334;27;20457;-69
2022/10/28 05:15:19;;;;;;;26.60;15.45;;;;;;;;;;5101690;27;20043;-70
2022/10/28 05:17:45;;;;;;;25.42;15.30;;;;;;;;;;5108685;27;20102;-70
2022/10/28 05:20:13;;;;;;;30.95;15.90;;;;;;;;;;5109184;27;20127;-70
2022/10/28 05:22:44;;;;;;;27.75;15.25;;;;;;;;;;5108222;27;20085;-69
2022/10/28 05:25:10;;;;;;;30.95;15.93;;;;;;;;;;5102750;28;20044;-69
2022/10/28 05:27:36;;;;;;;25.70;14.70;;;;;;;;;;5104214;27;20390;-69
2022/10/28 05:30:02;;;;;;;23.42;14.82;;;;;;;;;;5105543;27;20093;-70
2022/10/28 05:32:28;;;;;;;28.80;15.02;;;;;;;;;;5098518;28;20043;-70
2022/10/28 05:34:54;;;;;;;29.55;15.02;;;;;;;;;;5104243;27;20936;-69
2022/10/28 05:37:20;;;;;;;26.30;14.90;;;;;;;;;;5108611;27;20070;-70
2022/10/28 05:39:46;;;;;;;26.17;14.32;;;;;;;;;;5106519;27;20044;-69
2022/10/28 05:42:12;;;;;;;23.63;14.32;;;;;;;;;;5090922;28;20043;-70
2022/10/28 05:44:38;;;;;;;22.67;13.85;;;;;;;;;;5098378;28;20486;-70
2022/10/28 05:47:04;;;;;;;26.02;14.27;;;;;;;;;;5108437;27;20047;-70
2022/10/28 05:49:30;;;;;;;24.58;14.05;;;;;;;;;;5102806;28;20048;-70
2022/10/28 05:51:56;;;;;;;25.27;14.73;;;;;;;;;;5106459;27;20082;-69
2022/10/28 05:54:22;;;;;;;26.45;13.65;;;;;;;;;;5107454;27;20071;-69
2022/10/28 05:56:48;;;;;;;25.50;13.25;;;;;;;;;;5111576;27;20098;-68
2022/10/28 05:59:14;;;;;;;30.10;14.13;;;;;;;;;;5101983;27;20096;-69
2022/10/28 06:01:40;;;;;;;28.42;14.25;;;;;;;;;;5108376;27;20039;-69
2022/10/28 06:04:06;;;;;;;27.65;13.85;;;;;;;;;;5102474;27;20047;-70
2022/10/28 06:06:32;;;;;;;28.05;13.95;;;;;;;;;;5102871;28;20048;-69
2022/10/28 06:08:58;;;;;;;28.95;14.10;;;;;;;;;;5099579;28;20457;-70
2022/10/28 06:11:24;;;;;;;21.55;13.77;;;;;;;;;;5098748;28;20036;-70
2022/10/28 06:13:50;;;;;;;26.80;14.30;;;;;;;;;;5096658;27;20097;-70
2022/10/28 06:16:16;;;;;;;29.10;13.73;;;;;;;;;;5094578;28;20108;-69
2022/10/28 06:18:42;;;;;;;21.25;13.10;;;;;;;;;;5094939;27;20085;-70
2022/10/28 06:21:08;;;;;;;25.13;13.38;;;;;;;;;;5104620;27;20329;-69
2022/10/28 06:23:34;;;;;;;24.30;13.73;;;;;;;;;;5091250;28;20070;-70
2022/10/28 06:26:01;;;;;;;23.70;12.35;;;;;;;;;;5109152;27;20062;-70
2022/10/28 06:28:27;;;;;;;25.23;13.48;;;;;;;;;;5094944;27;20055;-69
2022/10/28 06:30:53;;;;;;;27.15;12.88;;;;;;;;;;5095193;28;20045;-69
2022/10/28 06:33:19;;;;;;;27.52;12.95;;;;;;;;;;5095696;27;20083;-69
2022/10/28 06:35:45;;;;;;;29.25;13.75;;;;;;;;;;5098497;28;20089;-69
2022/10/28 06:38:11;;;;;;;25.52;12.82;;;;;;;;;;5092024;28;20478;-69
2022/10/28 06:40:37;;;;;;;23.42;12.38;;;;;;;;;;5100262;27;20040;-69
2022/10/28 06:43:04;;;;;;;27.85;12.95;;;;;;;;;;5107243;28;20055;-69
2022/10/28 06:45:32;;;;;;;23.63;12.23;;;;;;;;;;5107794;27;20580;-69
2022/10/28 06:47:58;;;;;;;20.55;11.57;;;;;;;;;;5093993;28;20048;-69
2022/10/28 06:50:25;;;;;;;24.95;12.20;;;;;;;;;;5091176;27;20036;-68
2022/10/28 06:52:51;;;;;;;24.55;12.55;;;;;;;;;;5098221;28;20072;-69
2022/10/28 06:55:17;;;;;;;22.90;12.25;;;;;;;;;;5109132;27;20071;-69
2022/10/28 06:57:43;;;;;;;25.40;12.88;;;;;;;;;;5092322;28;20040;-69
2022/10/28 07:00:09;;;;;;;26.48;12.65;;;;;;;;;;5100915;28;20047;-69
2022/10/28 07:02:35;;;;;;;23.90;12.50;;;;;;;;;;5105857;28;20551;-69
2022/10/28 07:05:01;;;;;;;26.50;12.20;;;;;;;;;;5101674;28;20048;-69
2022/10/28 07:07:27;;;;;;;23.73;12.38;;;;;;;;;;5103248;28;20078;-69
2022/10/28 07:09:53;;;;;;;27.05;12.55;;;;;;;;;;5103745;28;20433;-69
2022/10/28 07:12:19;;;;;;;24.98;11.93;;;;;;;;;;5104690;28;20079;-69
2022/10/28 07:14:45;;;;;;;22.08;12.43;;;;;;;;;;5105406;28;20059;-69
2022/10/28 07:17:11;;;;;;;21.85;12.52;;;;;;;;;;5107301;28;20035;-69
2022/10/28 07:19:37;;;;;;;27.67;12.20;;;;;;;;;;5110916;28;20599;-69
2022/10/28 07:22:03;;;;;;;25.38;12.02;;;;;;;;;;5111799;28;20058;-69
2022/10/28 07:24:29;;;;;;;23.80;11.38;;;;;;;;;;5117226;28;20043;-69
2022/10/28 07:26:55;;;;;;;23.48;11.52;;;;;;;;;;5083386;28;20146;-69
2022/10/28 07:29:21;;;;;;;26.58;11.20;;;;;;;;;;5093219;28;20104;-69
2022/10/28 07:31:47;;;;;;;24.10;11.30;;;;;;;;;;5101550;28;20115;-69
2022/10/28 07:34:13;;;;;;;24.13;11.25;;;;;;;;;;5104989;28;20047;-69
2022/10/28 07:36:39;;;;;;;24.88;10.68;;;;;;;;;;5109141;28;20044;-68
2022/10/28 07:39:05;;;;;;;30.08;11.52;;;;;;;;;;5097655;28;20047;-69
2022/10/28 07:41:31;;;;;;;21.52;10.02;;;;;;;;;;5102258;28;20037;-70
2022/10/28 07:43:57;;;;;;;22.80;10.93;;;;;;;;;;5100816;28;20054;-69
2022/10/28 07:46:23;;;;;;;19.42;9.55;;;;;;;;;;5102983;28;20094;-69
2022/10/28 07:48:49;;;;;;;17.75;9.68;;;;;;;;;;5105513;28;20048;-68
2022/10/28 07:51:15;;;;;;;16.70;9.45;;;;;;;;;;5101460;28;20048;-70
2022/10/28 07:53:41;;;;;;;20.90;9.48;;;;;;;;;;5092074;28;20063;-69
2022/10/28 07:56:12;;;;;;;22.80;9.10;;;;;;;;;;5096705;27;20044;-68
2022/10/28 07:58:38;;;;;;;19.33;9.45;;;;;;;;;;5103347;27;20040;-69
2022/10/28 08:01:07;;;;;;;20.80;9.25;;;;;;;;;;5108298;27;21641;-69
2022/10/28 08:03:34;;;;;;;19.25;9.25;;;;;;;;;;5106152;27;20051;-69
2022/10/28 08:06:10;;;;;;;23.30;9.52;;;;;;;;;;5102849;28;20051;-68
2022/10/28 08:08:37;;;;;;;21.35;9.18;;;;;;;;;;5079903;28;20055;-69
2022/10/28 08:11:10;;;;;;;24.10;9.10;;;;;;;;;;5104308;27;20073;-68
2022/10/28 08:13:36;;;;;;;18.65;9.18;;;;;;;;;;5110286;27;20073;-69
2022/10/28 08:16:02;;;;;;;22.30;9.07;;;;;;;;;;5100770;27;20043;-69
2022/10/28 08:18:28;;;;;;;22.92;9.35;;;;;;;;;;5083573;28;20566;-69
2022/10/28 08:20:54;;;;;;;21.25;8.90;;;;;;;;;;5095774;27;20049;-68
2022/10/28 08:23:20;;;;;;;20.88;8.60;;;;;;;;;;5100016;27;20059;-69
2022/10/28 08:25:48;;;;;;;22.92;8.60;;;;;;;;;;5103738;27;20048;-68
2022/10/28 08:28:14;;;;;;;20.38;8.35;;;;;;;;;;5102009;28;20378;-67
2022/10/28 08:30:40;;;;;;;19.35;8.77;;;;;;;;;;5097605;27;20063;-69
2022/10/28 08:33:06;;;;;;;27.20;9.13;;;;;;;;;;5096017;28;20068;-69
2022/10/28 08:35:34;;;;;;;16.13;8.65;;;;;;;;;;5099038;27;20049;-69
2022/10/28 08:38:00;;;;;;;16.00;8.40;;;;;;;;;;5100734;27;20051;-69
2022/10/28 08:40:46;;;;;;;21.20;8.20;;;;;;;;;;5093948;27;20048;-68
2022/10/28 08:43:27;;;;;;;17.08;7.95;;;;;;;;;;5064369;28;20062;-69
2022/10/28 08:46:01;;;;;;;15.38;8.30;;;;;;;;;;5096162;28;20044;-69
2022/10/28 08:48:30;;;;;;;26.23;8.95;;;;;;;;;;5097817;27;20054;-68
2022/10/28 08:51:19;;;;;;;19.52;8.15;;;;;;;;;;5094726;28;20044;-69
2022/10/28 08:53:47;;;;;;;16.23;7.88;;;;;;;;;;5090224;27;20052;-69
2022/10/28 08:56:15;;;;;;;18.63;8.63;;;;;;;;;;5098784;27;20647;-69
2022/10/28 08:58:43;;;;;;;21.60;8.77;;;;;;;;;;5101564;28;20042;-69
2022/10/28 09:01:16;;;;;;;21.98;8.35;;;;;;;;;;5100581;27;20044;-68
2022/10/28 09:03:45;;;;;;;19.08;8.05;;;;;;;;;;5098136;28;20139;-69
2022/10/28 09:06:11;;;;;;;22.08;7.95;;;;;;;;;;5095186;27;20133;-69
2022/10/28 09:08:39;;;;;;;20.55;7.25;;;;;;;;;;5112762;27;20050;-69
2022/10/28 09:11:06;;;;;;;19.63;7.78;;;;;;;;;;5082429;28;20090;-68
2022/10/28 09:13:51;;;;;;;17.85;7.15;;;;;;;;;;5124115;27;20057;-69
2022/10/28 09:16:17;;;;;;;22.35;7.60;;;;;;;;;;5120440;27;20051;-69
2022/10/28 09:18:53;;;;;;;16.70;7.43;;;;;;;;;;5107997;27;20052;-68
2022/10/28 09:21:21;;;;;;;16.73;7.65;;;;;;;;;;5106849;27;20154;-69
2022/10/28 09:23:53;;;;;;;20.50;7.40;;;;;;;;;;5115925;27;20046;-68
2022/10/28 09:26:38;;;;;;;21.70;7.80;;;;;;;;;;5121879;27;20074;-68
2022/10/28 09:29:25;;;;;;;17.35;7.60;;;;;;;;;;5117139;27;20062;-69
2022/10/28 09:32:14;;;;;;;18.15;8.00;;;;;;;;;;5105555;27;20154;-69
2022/10/28 09:34:43;;;;;;;21.33;7.30;;;;;;;;;;5106442;27;20528;-68
2022/10/28 09:37:30;;;;;;;19.50;7.15;;;;;;;;;;5109292;28;20031;-69
2022/10/28 09:39:59;;;;;;;15.35;7.30;;;;;;;;;;5114962;27;20047;-69
2022/10/28 09:42:26;;;;;;;21.00;7.10;;;;;;;;;;5113954;27;20040;-69
2022/10/28 09:44:55;;;;;;;17.13;6.47;;;;;;;;;;5108004;27;20047;-69
2022/10/28 09:47:23;;;;;;;19.48;6.78;;;;;;;;;;5113333;27;20071;-68
2022/10/28 09:49:51;;;;;;;16.90;6.43;;;;;;;;;;5112818;27;20046;-68
2022/10/28 09:52:20;;;;;;;14.77;6.85;;;;;;;;;;5110409;27;20054;-69
2022/10/28 09:54:49;;;;;;;21.58;6.40;;;;;;;;;;5114111;27;20047;-69
2022/10/28 09:57:15;;;;;;;20.35;6.57;;;;;;;;;;5111756;27;20119;-69
2022/10/28 09:59:41;;;;;;;15.93;6.95;;;;;;;;;;5126241;27;20054;-68
2022/10/28 10:02:22;;;;;;;18.23;6.40;;;;;;;;;;5105159;27;20080;-68
2022/10/28 10:04:48;;;;;;;15.98;6.10;;;;;;;;;;5122803;27;20051;-69
2022/10/28 10:07:18;;;;;;;25.63;6.70;;;;;;;;;;5114222;27;20051;-68
2022/10/28 10:09:44;;;;;;;20.20;6.30;;;;;;;;;;5107328;27;20496;-68
2022/10/28 10:12:11;;;;;;;19.70;5.90;;;;;;;;;;5105124;27;20051;-68
2022/10/28 10:14:43;;;;;;;16.58;6.45;;;;;;;;;;5115138;27;20054;-68
2022/10/28 10:17:15;;;;;;;19.80;6.13;;;;;;;;;;5096431;28;20390;-68
2022/10/28 10:19:56;;;;;;;21.95;6.63;;;;;;;;;;5116986;27;20051;-68
2022/10/28 10:22:31;;;;;;;18.42;6.30;;;;;;;;;;5104466;27;20051;-68
2022/10/28 10:24:57;;;;;;;17.48;6.50;;;;;;;;;;5098651;27;20118;-69
2022/10/28 10:27:24;;;;;;;14.98;6.72;;;;;;;;;;5109245;27;20382;-68
2022/10/28 10:29:51;;;;;;;21.70;7.78;;;;;;;;;;5114914;27;20405;-68
2022/10/28 10:32:17;;;;;;;24.85;7.38;;;;;;;;;;5109983;27;20079;-68
2022/10/28 10:35:01;;;;;;;19.33;6.85;;;;;;;;;;5113228;27;20085;-68
2022/10/28 10:37:29;;;;;;;18.92;7.60;;;;;;;;;;5101551;28;20134;-68
2022/10/28 10:40:03;;;;;;;23.35;7.75;;;;;;;;;;5101656;27;20047;-68
2022/10/28 10:42:29;;;;;;;18.13;7.30;;;;;;;;;;5126018;27;20051;-68
2022/10/28 10:44:59;;;;;;;19.70;7.60;;;;;;;;;;5116714;27;20054;-68
2022/10/28 10:47:25;;;;;;;17.92;7.18;;;;;;;;;;5106206;27;20055;-68
2022/10/28 10:49:53;;;;;;;22.33;7.50;;;;;;;;;;5114114;27;20165;-68
2022/10/28 10:52:24;;;;;;;20.88;6.78;;;;;;;;;;5116162;27;20039;-68
2022/10/28 10:55:06;;;;;;;27.58;6.93;;;;;;;;;;5114798;27;20071;-68
2022/10/28 10:57:32;;;;;;;20.30;7.07;;;;;;;;;;5114030;27;20078;-68
2022/10/28 10:59:58;;;;;;;14.23;5.43;;;;;;;;;;5115168;28;20050;-68
2022/10/28 11:02:27;;;;;;;21.83;6.47;;;;;;;;;;5097766;28;20050;-68
2022/10/28 11:04:55;;;;;;;20.27;6.97;;;;;;;;;;5112587;28;20047;-68
2022/10/28 11:07:21;;;;;;;18.88;6.55;;;;;;;;;;5110920;28;20446;-68
2022/10/28 11:09:48;;;;;;;16.08;6.25;;;;;;;;;;5113632;28;20050;-68
2022/10/28 11:12:34;;;;;;;22.98;6.70;;;;;;;;;;5114968;27;20088;-68
2022/10/28 11:15:20;;;;;;;21.55;5.75;;;;;;;;;;5109913;28;20134;-68
2022/10/28 11:17:56;;;;;;;19.77;6.00;;;;;;;;;;5099550;28;20043;-68
2022/10/28 11:20:24;;;;;;;20.67;5.90;;;;;;;;;;5122823;27;20047;-68
2022/10/28 11:22:59;;;;;;;18.40;6.22;;;;;;;;;;5120920;27;20039;-68
2022/10/28 11:25:34;;;;;;;16.40;6.10;;;;;;;;;;5114569;27;20055;-68
2022/10/28 11:28:04;;;;;;;18.90;5.38;;;;;;;;;;5118965;27;20437;-68
2022/10/28 11:30:36;;;;;;;15.48;5.63;;;;;;;;;;5125626;27;20577;-68
2022/10/28 11:33:06;;;;;;;;;;;;;;;;;;5114650;27;20392;-68
2022/10/28 11:35:32;;;;;;;19.00;5.47;;;;;;;;;;5113265;27;19924;-68
2022/10/28 11:38:07;;;;;;;20.15;5.75;;;;;;;;;;5118510;27;20061;-68
2022/10/28 11:40:51;;;;;;;25.65;6.07;;;;;;;;;;5128787;27;20082;-68
2022/10/28 11:43:36;;;;;;;14.52;5.45;;;;;;;;;;5115382;27;20043;-68
2022/10/28 11:46:09;;;;;;;19.98;5.50;;;;;;;;;;5109572;28;20052;-68
2022/10/28 11:48:43;;;;;;;20.42;5.60;;;;;;;;;;5108323;27;20150;-68
2022/10/28 11:51:15;;;;;;;13.52;5.38;;;;;;;;;;5110796;27;20058;-68
2022/10/28 11:53:41;;;;;;;;;;;;;;;;;;5103124;27;20039;-68
2022/10/28 11:56:25;;;;;;;19.48;5.75;;;;;;;;;;5126714;27;20002;-68
2022/10/28 11:59:10;;;;;;;14.48;5.32;;;;;;;;;;5111944;27;20552;-68
2022/10/28 12:01:40;;;;;;;15.43;5.30;;;;;;;;;;5113936;27;20036;-68
2022/10/28 12:04:20;;;;;;;14.55;5.07;;;;;;;;;;5106497;27;20043;-68
2022/10/28 12:07:02;;;;;;;18.13;5.22;;;;;;;;;;5110747;27;20044;-68
2022/10/28 12:09:31;;;;;;;13.63;5.03;;;;;;;;;;5121375;27;20489;-68
2022/10/28 12:12:16;;;;;;;17.25;5.10;;;;;;;;;;5115532;27;20043;-68
2022/10/28 12:14:47;;;;;;;21.42;5.35;;;;;;;;;;5124380;27;20063;-68
2022/10/28 12:17:17;;;;;;;12.73;4.77;;;;;;;;;;5112344;27;20048;-68
2022/10/28 12:19:50;;;;;;;17.08;5.82;;;;;;;;;;5108673;27;20035;-68
2022/10/28 12:22:35;;;;;;;18.42;5.50;;;;;;;;;;5120387;27;20049;-68
2022/10/28 12:25:06;;;;;;;21.08;5.50;;;;;;;;;;5124971;27;20669;-69
2022/10/28 12:27:37;;;;;;;20.13;5.25;;;;;;;;;;5120430;27;20142;-68
2022/10/28 12:30:07;;;;;;;17.38;5.22;;;;;;;;;;5126061;27;20043;-68
2022/10/28 12:32:35;;;;;;;19.63;5.32;;;;;;;;;;5108760;27;20122;-68
2022/10/28 12:35:15;;;;;;;19.48;5.32;;;;;;;;;;5110375;27;20055;-68
2022/10/28 12:37:45;;;;;;;16.52;5.32;;;;;;;;;;5111421;28;20044;-68
2022/10/28 12:40:20;;;;;;;20.83;5.55;;;;;;;;;;5094513;28;20153;-68
2022/10/28 12:42:58;;;;;;;17.90;5.80;;;;;;;;;;5104762;28;20052;-68
2022/10/28 12:45:24;;;;;;;14.77;5.45;;;;;;;;;;5109106;28;20039;-68
2022/10/28 12:48:02;;;;;;;16.85;6.13;;;;;;;;;;5108934;28;20108;-68
2022/10/28 12:50:43;;;;;;;16.30;5.93;;;;;;;;;;5105953;28;20047;-68
2022/10/28 12:53:28;;;;;;;16.23;5.78;;;;;;;;;;5110666;28;20104;-68
2022/10/28 12:55:59;;;;;;;16.80;6.15;;;;;;;;;;5108916;28;20043;-68
2022/10/28 12:58:34;;;;;;;17.20;5.75;;;;;;;;;;5112157;28;20561;-68
2022/10/28 13:01:02;;;;;;;17.20;5.82;;;;;;;;;;5110554;28;20118;-68
2022/10/28 13:03:28;;;;;;;20.65;5.72;;;;;;;;;;5092410;28;20067;-68
2022/10/28 13:06:27;;;;;;;16.92;5.93;;;;;;;;;;5110573;28;20516;-68
2022/10/28 13:09:13;;;;;;;17.92;5.93;;;;;;;;;;5082930;28;20051;-68
2022/10/28 13:11:48;;;;;;;21.00;5.93;;;;;;;;;;5102701;28;20051;-68
2022/10/28 13:14:26;;;;;;;18.92;5.78;;;;;;;;;;5101393;28;20044;-68
2022/10/28 13:17:01;;;;;;;17.95;6.25;;;;;;;;;;5110694;28;20439;-68
2022/10/28 13:19:33;;;;;;;14.90;6.30;;;;;;;;;;5109489;28;20035;-68
2022/10/28 13:22:06;;;;;;;23.85;6.18;;;;;;;;;;5110639;28;20073;-68
2022/10/28 13:24:50;;;;;;;19.35;6.43;;;;;;;;;;5109955;28;20083;-68
2022/10/28 13:27:17;;;;;;;17.63;5.95;;;;;;;;;;5103654;28;20106;-68
2022/10/28 13:29:49;;;;;;;19.20;6.40;;;;;;;;;;5106333;28;20043;-68
2022/10/28 13:32:33;;;;;;;16.77;5.87;;;;;;;;;;5103480;28;20383;-68
2022/10/28 13:35:00;;;;;;;16.13;5.88;;;;;;;;;;5110099;28;20043;-68
2022/10/28 13:37:29;;;;;;;21.90;6.05;;;;;;;;;;5109952;28;20095;-68
2022/10/28 13:39:55;;;;;;;15.43;6.10;;;;;;;;;;5110625;28;20100;-68
2022/10/28 13:42:22;;;;;;;16.77;6.05;;;;;;;;;;5104189;28;20589;-68
2022/10/28 13:44:50;;;;;;;19.58;6.18;;;;;;;;;;5106540;28;20047;-68
2022/10/28 13:47:16;;;;;;;19.55;6.32;;;;;;;;;;5108016;28;20117;-68
2022/10/28 13:50:01;;;;;;;17.08;5.95;;;;;;;;;;5105517;28;20055;-68
2022/10/28 13:52:27;;;;;;;20.90;6.20;;;;;;;;;;5108836;28;20047;-68
2022/10/28 13:54:54;;;;;;;17.33;5.50;;;;;;;;;;5110258;28;20051;-68
2022/10/28 13:57:26;;;;;;;17.35;5.85;;;;;;;;;;5109717;27;20050;-68
2022/10/28 13:59:57;;;;;;;21.35;5.90;;;;;;;;;;5109037;28;20092;-68
2022/10/28 14:02:28;;;;;;;26.00;5.80;;;;;;;;;;5109528;28;20040;-68
2022/10/28 14:04:55;;;;;;;20.42;6.55;;;;;;;;;;5109794;28;20054;-68
2022/10/28 14:07:31;;;;;;;18.67;6.32;;;;;;;;;;5109988;28;20134;-68
2022/10/28 14:09:59;;;;;;;19.30;6.07;;;;;;;;;;5109103;28;20054;-68
2022/10/28 14:12:27;;;;;;;18.13;6.32;;;;;;;;;;5092129;28;20043;-68
2022/10/28 14:14:59;;;;;;;17.45;6.50;;;;;;;;;;5092439;28;20047;-68
2022/10/28 14:17:48;;;;;;;22.08;6.57;;;;;;;;;;5107087;28;20044;-68
2022/10/28 14:20:26;;;;;;;19.83;5.97;;;;;;;;;;5090331;28;20486;-68
2022/10/28 14:22:53;;;;;;;21.67;6.30;;;;;;;;;;5103895;28;20051;-68
2022/10/28 14:25:48;;;;;;;19.67;6.15;;;;;;;;;;5107703;28;20043;-68
2022/10/28 14:28:26;;;;;;;18.40;5.22;;;;;;;;;;5080295;28;20051;-68
2022/10/28 14:31:09;;;;;;;16.80;5.50;;;;;;;;;;5104221;28;20066;-68
2022/10/28 14:33:36;;;;;;;16.10;5.22;;;;;;;;;;5084508;28;20047;-68
2022/10/28 14:36:17;;;;;;;15.52;5.47;;;;;;;;;;5101768;28;20056;-68
2022/10/28 14:38:49;;;;;;;18.48;5.82;;;;;;;;;;5101612;28;20040;-68